sensor_id;sensor_type;location;lat;lon;timestamp;P1;durP1;ratioP1;P2;durP2;ratioP2
57567;SDS011;43403;51.948;5.922;2023-03-31T00:01:50;8.35;;;2.25;;
57567;SDS011;43403;51.948;5.922;2023-03-31T00:04:18;10.38;;;2.58;;
57567;SDS011;43403;51.948;5.922;2023-03-31T00:06:49;10.73;;;3.03;;
57567;SDS011;43403;51.948;5.922;2023-03-31T00:09:19;15.63;;;3.88;;
57567;SDS011;43403;51.948;5.922;2023-03-31T00:11:50;13.77;;;2.92;;
57567;SDS011;43403;51.948;5.922;2023-03-31T00:14:18;14.35;;;2.53;;
57567;SDS011;43403;51.948;5.922;2023-03-31T00:19:12;11.93;;;2.47;;
57567;SDS011;43403;51.948;5.922;2023-03-31T00:21:46;11.30;;;2.80;;
57567;SDS011;43403;51.948;5.922;2023-03-31T00:24:14;12.43;;;2.47;;
57567;SDS011;43403;51.948;5.922;2023-03-31T00:26:42;8.43;;;2.40;;
57567;SDS011;43403;51.948;5.922;2023-03-31T00:29:10;9.93;;;2.75;;
57567;SDS011;43403;51.948;5.922;2023-03-31T00:31:38;7.32;;;1.90;;
57567;SDS011;43403;51.948;5.922;2023-03-31T00:34:05;10.00;;;2.90;;
57567;SDS011;43403;51.948;5.922;2023-03-31T00:36:31;9.20;;;2.15;;
57567;SDS011;43403;51.948;5.922;2023-03-31T00:39:03;7.13;;;1.85;;
57567;SDS011;43403;51.948;5.922;2023-03-31T00:41:35;7.40;;;2.55;;
57567;SDS011;43403;51.948;5.922;2023-03-31T00:44:09;5.90;;;1.92;;
57567;SDS011;43403;51.948;5.922;2023-03-31T00:46:54;8.75;;;1.70;;
57567;SDS011;43403;51.948;5.922;2023-03-31T00:52:00;9.70;;;2.17;;
57567;SDS011;43403;51.948;5.922;2023-03-31T00:54:31;7.03;;;2.10;;
57567;SDS011;43403;51.948;5.922;2023-03-31T00:56:59;7.33;;;2.07;;
57567;SDS011;43403;51.948;5.922;2023-03-31T00:59:29;9.95;;;2.47;;
57567;SDS011;43403;51.948;5.922;2023-03-31T01:01:59;8.10;;;1.80;;
57567;SDS011;43403;51.948;5.922;2023-03-31T01:04:29;10.48;;;2.15;;
57567;SDS011;43403;51.948;5.922;2023-03-31T01:07:07;9.82;;;2.35;;
57567;SDS011;43403;51.948;5.922;2023-03-31T01:09:43;7.75;;;1.70;;
57567;SDS011;43403;51.948;5.922;2023-03-31T01:12:12;7.15;;;2.28;;
57567;SDS011;43403;51.948;5.922;2023-03-31T01:14:42;10.02;;;1.77;;
57567;SDS011;43403;51.948;5.922;2023-03-31T01:17:08;7.85;;;1.88;;
57567;SDS011;43403;51.948;5.922;2023-03-31T01:19:40;8.73;;;1.67;;
57567;SDS011;43403;51.948;5.922;2023-03-31T01:22:31;8.10;;;1.70;;
57567;SDS011;43403;51.948;5.922;2023-03-31T01:31:06;5.85;;;1.60;;
57567;SDS011;43403;51.948;5.922;2023-03-31T01:48:28;6.47;;;1.63;;
57567;SDS011;43403;51.948;5.922;2023-03-31T01:57:16;5.68;;;1.20;;
57567;SDS011;43403;51.948;5.922;2023-03-31T02:00:09;7.13;;;1.70;;
57567;SDS011;43403;51.948;5.922;2023-03-31T02:02:39;8.10;;;1.80;;
57567;SDS011;43403;51.948;5.922;2023-03-31T02:05:13;9.82;;;2.13;;
57567;SDS011;43403;51.948;5.922;2023-03-31T02:07:53;8.43;;;1.90;;
57567;SDS011;43403;51.948;5.922;2023-03-31T02:10:25;9.30;;;1.70;;
57567;SDS011;43403;51.948;5.922;2023-03-31T02:12:54;10.57;;;1.73;;
57567;SDS011;43403;51.948;5.922;2023-03-31T02:15:24;9.18;;;1.83;;
57567;SDS011;43403;51.948;5.922;2023-03-31T02:17:55;9.40;;;2.10;;
57567;SDS011;43403;51.948;5.922;2023-03-31T02:20:26;8.65;;;1.60;;
57567;SDS011;43403;51.948;5.922;2023-03-31T02:22:55;9.55;;;1.90;;
57567;SDS011;43403;51.948;5.922;2023-03-31T02:25:24;10.27;;;2.08;;
57567;SDS011;43403;51.948;5.922;2023-03-31T02:27:57;8.35;;;1.50;;
57567;SDS011;43403;51.948;5.922;2023-03-31T02:30:29;8.05;;;1.75;;
57567;SDS011;43403;51.948;5.922;2023-03-31T02:33:11;9.43;;;2.17;;
57567;SDS011;43403;51.948;5.922;2023-03-31T02:35:37;9.40;;;2.13;;
57567;SDS011;43403;51.948;5.922;2023-03-31T02:38:04;10.65;;;2.28;;
57567;SDS011;43403;51.948;5.922;2023-03-31T02:40:34;8.80;;;2.17;;
57567;SDS011;43403;51.948;5.922;2023-03-31T02:43:00;10.82;;;2.50;;
57567;SDS011;43403;51.948;5.922;2023-03-31T02:45:43;7.43;;;2.08;;
57567;SDS011;43403;51.948;5.922;2023-03-31T02:53:22;7.43;;;2.10;;
57567;SDS011;43403;51.948;5.922;2023-03-31T02:59:14;5.78;;;1.50;;
57567;SDS011;43403;51.948;5.922;2023-03-31T03:09:57;11.88;;;2.20;;
57567;SDS011;43403;51.948;5.922;2023-03-31T03:12:48;6.13;;;1.23;;
57567;SDS011;43403;51.948;5.922;2023-03-31T03:15:23;10.30;;;2.60;;
57567;SDS011;43403;51.948;5.922;2023-03-31T03:17:55;6.80;;;1.40;;
57567;SDS011;43403;51.948;5.922;2023-03-31T03:20:23;5.88;;;1.42;;
57567;SDS011;43403;51.948;5.922;2023-03-31T03:22:49;6.13;;;1.42;;
57567;SDS011;43403;51.948;5.922;2023-03-31T03:25:16;7.55;;;1.50;;
57567;SDS011;43403;51.948;5.922;2023-03-31T03:27:43;7.85;;;1.40;;
57567;SDS011;43403;51.948;5.922;2023-03-31T03:30:10;10.25;;;1.98;;
57567;SDS011;43403;51.948;5.922;2023-03-31T03:32:38;8.68;;;1.52;;
57567;SDS011;43403;51.948;5.922;2023-03-31T03:35:06;7.38;;;1.38;;
57567;SDS011;43403;51.948;5.922;2023-03-31T03:37:33;6.63;;;1.55;;
57567;SDS011;43403;51.948;5.922;2023-03-31T03:40:00;10.25;;;2.08;;
57567;SDS011;43403;51.948;5.922;2023-03-31T03:42:26;10.55;;;1.90;;
57567;SDS011;43403;51.948;5.922;2023-03-31T03:44:53;10.02;;;1.90;;
57567;SDS011;43403;51.948;5.922;2023-03-31T03:47:19;17.27;;;2.60;;
57567;SDS011;43403;51.948;5.922;2023-03-31T03:49:46;12.93;;;2.20;;
57567;SDS011;43403;51.948;5.922;2023-03-31T03:52:14;7.07;;;1.90;;
57567;SDS011;43403;51.948;5.922;2023-03-31T03:54:41;9.95;;;1.92;;
57567;SDS011;43403;51.948;5.922;2023-03-31T03:57:07;8.85;;;1.65;;
57567;SDS011;43403;51.948;5.922;2023-03-31T03:59:34;12.63;;;1.95;;
57567;SDS011;43403;51.948;5.922;2023-03-31T04:02:00;10.95;;;2.13;;
57567;SDS011;43403;51.948;5.922;2023-03-31T04:04:27;8.00;;;1.95;;
57567;SDS011;43403;51.948;5.922;2023-03-31T04:06:53;10.57;;;2.15;;
57567;SDS011;43403;51.948;5.922;2023-03-31T04:09:20;12.10;;;2.00;;
57567;SDS011;43403;51.948;5.922;2023-03-31T04:11:46;13.13;;;2.35;;
57567;SDS011;43403;51.948;5.922;2023-03-31T04:14:13;12.35;;;2.10;;
57567;SDS011;43403;51.948;5.922;2023-03-31T04:16:39;7.15;;;1.80;;
57567;SDS011;43403;51.948;5.922;2023-03-31T04:19:08;14.80;;;2.33;;
57567;SDS011;43403;51.948;5.922;2023-03-31T04:24:10;13.75;;;2.45;;
57567;SDS011;43403;51.948;5.922;2023-03-31T04:26:46;10.70;;;2.00;;
57567;SDS011;43403;51.948;5.922;2023-03-31T04:29:16;9.60;;;1.85;;
57567;SDS011;43403;51.948;5.922;2023-03-31T04:34:12;12.98;;;2.40;;
57567;SDS011;43403;51.948;5.922;2023-03-31T04:36:41;8.48;;;1.77;;
57567;SDS011;43403;51.948;5.922;2023-03-31T04:39:16;10.65;;;2.55;;
57567;SDS011;43403;51.948;5.922;2023-03-31T04:41:52;11.02;;;1.95;;
57567;SDS011;43403;51.948;5.922;2023-03-31T04:44:18;10.32;;;2.25;;
57567;SDS011;43403;51.948;5.922;2023-03-31T04:46:45;10.57;;;2.35;;
57567;SDS011;43403;51.948;5.922;2023-03-31T04:49:11;10.45;;;2.15;;
57567;SDS011;43403;51.948;5.922;2023-03-31T04:51:38;12.48;;;1.92;;
57567;SDS011;43403;51.948;5.922;2023-03-31T04:54:04;7.05;;;1.60;;
57567;SDS011;43403;51.948;5.922;2023-03-31T04:56:31;9.35;;;1.90;;
57567;SDS011;43403;51.948;5.922;2023-03-31T04:58:58;10.98;;;1.83;;
57567;SDS011;43403;51.948;5.922;2023-03-31T05:01:24;6.75;;;1.95;;
57567;SDS011;43403;51.948;5.922;2023-03-31T05:03:51;9.10;;;2.42;;
57567;SDS011;43403;51.948;5.922;2023-03-31T05:06:17;5.57;;;1.77;;
57567;SDS011;43403;51.948;5.922;2023-03-31T05:08:44;8.65;;;1.80;;
57567;SDS011;43403;51.948;5.922;2023-03-31T05:11:11;9.50;;;1.88;;
57567;SDS011;43403;51.948;5.922;2023-03-31T05:13:37;8.65;;;2.25;;
57567;SDS011;43403;51.948;5.922;2023-03-31T05:16:07;8.38;;;1.88;;
57567;SDS011;43403;51.948;5.922;2023-03-31T05:18:36;9.95;;;2.00;;
57567;SDS011;43403;51.948;5.922;2023-03-31T05:21:12;9.90;;;2.45;;
57567;SDS011;43403;51.948;5.922;2023-03-31T05:23:41;8.95;;;1.77;;
57567;SDS011;43403;51.948;5.922;2023-03-31T05:26:08;7.88;;;2.00;;
57567;SDS011;43403;51.948;5.922;2023-03-31T05:28:35;6.68;;;1.65;;
57567;SDS011;43403;51.948;5.922;2023-03-31T05:31:02;7.22;;;1.77;;
57567;SDS011;43403;51.948;5.922;2023-03-31T05:33:30;15.57;;;1.90;;
57567;SDS011;43403;51.948;5.922;2023-03-31T05:35:56;10.18;;;2.90;;
57567;SDS011;43403;51.948;5.922;2023-03-31T05:38:25;8.95;;;1.80;;
57567;SDS011;43403;51.948;5.922;2023-03-31T05:40:56;9.20;;;2.15;;
57567;SDS011;43403;51.948;5.922;2023-03-31T05:43:23;9.05;;;2.22;;
57567;SDS011;43403;51.948;5.922;2023-03-31T05:45:50;9.15;;;1.90;;
57567;SDS011;43403;51.948;5.922;2023-03-31T05:48:16;7.82;;;1.80;;
57567;SDS011;43403;51.948;5.922;2023-03-31T05:50:43;11.35;;;2.10;;
57567;SDS011;43403;51.948;5.922;2023-03-31T05:53:10;6.93;;;1.65;;
57567;SDS011;43403;51.948;5.922;2023-03-31T05:55:37;6.72;;;1.70;;
57567;SDS011;43403;51.948;5.922;2023-03-31T05:58:04;8.65;;;1.83;;
57567;SDS011;43403;51.948;5.922;2023-03-31T06:00:30;9.90;;;2.00;;
57567;SDS011;43403;51.948;5.922;2023-03-31T06:02:57;11.80;;;1.90;;
57567;SDS011;43403;51.948;5.922;2023-03-31T06:05:24;7.95;;;1.50;;
57567;SDS011;43403;51.948;5.922;2023-03-31T06:07:56;10.27;;;1.85;;
57567;SDS011;43403;51.948;5.922;2023-03-31T06:10:22;12.63;;;2.33;;
57567;SDS011;43403;51.948;5.922;2023-03-31T06:12:49;7.63;;;1.80;;
57567;SDS011;43403;51.948;5.922;2023-03-31T06:15:16;8.52;;;1.90;;
57567;SDS011;43403;51.948;5.922;2023-03-31T06:17:42;9.70;;;1.77;;
57567;SDS011;43403;51.948;5.922;2023-03-31T06:20:09;10.13;;;2.03;;
57567;SDS011;43403;51.948;5.922;2023-03-31T06:22:52;5.70;;;1.60;;
57567;SDS011;43403;51.948;5.922;2023-03-31T06:25:19;9.00;;;1.73;;
57567;SDS011;43403;51.948;5.922;2023-03-31T06:27:46;6.27;;;1.70;;
57567;SDS011;43403;51.948;5.922;2023-03-31T06:30:13;8.52;;;1.90;;
57567;SDS011;43403;51.948;5.922;2023-03-31T06:32:39;9.77;;;1.75;;
57567;SDS011;43403;51.948;5.922;2023-03-31T06:35:06;5.15;;;1.60;;
57567;SDS011;43403;51.948;5.922;2023-03-31T06:37:33;6.68;;;1.42;;
57567;SDS011;43403;51.948;5.922;2023-03-31T06:40:00;7.35;;;1.63;;
57567;SDS011;43403;51.948;5.922;2023-03-31T06:42:26;5.65;;;1.20;;
57567;SDS011;43403;51.948;5.922;2023-03-31T06:44:53;5.80;;;1.40;;
57567;SDS011;43403;51.948;5.922;2023-03-31T06:47:21;4.18;;;1.10;;
57567;SDS011;43403;51.948;5.922;2023-03-31T06:49:47;6.28;;;1.45;;
57567;SDS011;43403;51.948;5.922;2023-03-31T06:52:14;6.80;;;1.25;;
57567;SDS011;43403;51.948;5.922;2023-03-31T06:54:40;6.68;;;1.30;;
57567;SDS011;43403;51.948;5.922;2023-03-31T06:57:07;8.00;;;1.50;;
57567;SDS011;43403;51.948;5.922;2023-03-31T06:59:34;5.60;;;1.17;;
57567;SDS011;43403;51.948;5.922;2023-03-31T07:02:00;6.85;;;1.33;;
57567;SDS011;43403;51.948;5.922;2023-03-31T07:04:27;6.65;;;1.30;;
57567;SDS011;43403;51.948;5.922;2023-03-31T07:06:54;4.05;;;1.13;;
57567;SDS011;43403;51.948;5.922;2023-03-31T07:09:20;5.13;;;1.00;;
57567;SDS011;43403;51.948;5.922;2023-03-31T07:11:48;3.87;;;1.40;;
57567;SDS011;43403;51.948;5.922;2023-03-31T07:14:15;4.35;;;1.27;;
57567;SDS011;43403;51.948;5.922;2023-03-31T07:16:42;4.82;;;1.35;;
57567;SDS011;43403;51.948;5.922;2023-03-31T07:19:08;7.68;;;1.30;;
57567;SDS011;43403;51.948;5.922;2023-03-31T07:21:36;3.72;;;1.27;;
57567;SDS011;43403;51.948;5.922;2023-03-31T07:24:03;5.63;;;1.52;;
57567;SDS011;43403;51.948;5.922;2023-03-31T07:26:30;8.15;;;1.48;;
57567;SDS011;43403;51.948;5.922;2023-03-31T07:28:56;5.05;;;1.42;;
57567;SDS011;43403;51.948;5.922;2023-03-31T07:31:23;7.07;;;1.60;;
57567;SDS011;43403;51.948;5.922;2023-03-31T07:33:51;8.30;;;1.70;;
57567;SDS011;43403;51.948;5.922;2023-03-31T07:36:17;4.63;;;1.25;;
57567;SDS011;43403;51.948;5.922;2023-03-31T07:38:45;3.78;;;1.13;;
57567;SDS011;43403;51.948;5.922;2023-03-31T07:41:15;8.20;;;1.77;;
57567;SDS011;43403;51.948;5.922;2023-03-31T07:43:44;5.70;;;1.27;;
57567;SDS011;43403;51.948;5.922;2023-03-31T07:48:43;6.85;;;1.60;;
57567;SDS011;43403;51.948;5.922;2023-03-31T07:53:39;3.20;;;1.00;;
57567;SDS011;43403;51.948;5.922;2023-03-31T07:56:05;5.03;;;1.00;;
57567;SDS011;43403;51.948;5.922;2023-03-31T07:58:33;3.88;;;1.13;;
57567;SDS011;43403;51.948;5.922;2023-03-31T08:01:00;7.03;;;1.13;;
57567;SDS011;43403;51.948;5.922;2023-03-31T08:03:27;4.47;;;1.23;;
57567;SDS011;43403;51.948;5.922;2023-03-31T08:05:54;4.90;;;1.15;;
57567;SDS011;43403;51.948;5.922;2023-03-31T08:08:21;3.63;;;1.05;;
57567;SDS011;43403;51.948;5.922;2023-03-31T08:10:47;4.28;;;1.02;;
57567;SDS011;43403;51.948;5.922;2023-03-31T08:13:14;4.88;;;1.33;;
57567;SDS011;43403;51.948;5.922;2023-03-31T08:15:41;4.35;;;1.20;;
57567;SDS011;43403;51.948;5.922;2023-03-31T08:18:07;5.30;;;1.35;;
57567;SDS011;43403;51.948;5.922;2023-03-31T08:20:34;4.80;;;1.20;;
57567;SDS011;43403;51.948;5.922;2023-03-31T08:23:00;6.18;;;1.25;;
57567;SDS011;43403;51.948;5.922;2023-03-31T08:25:27;6.40;;;1.25;;
57567;SDS011;43403;51.948;5.922;2023-03-31T08:27:53;4.50;;;1.17;;
57567;SDS011;43403;51.948;5.922;2023-03-31T08:30:21;6.15;;;1.38;;
57567;SDS011;43403;51.948;5.922;2023-03-31T08:32:47;7.20;;;2.03;;
57567;SDS011;43403;51.948;5.922;2023-03-31T08:35:14;9.27;;;1.80;;
57567;SDS011;43403;51.948;5.922;2023-03-31T08:37:40;8.27;;;2.35;;
57567;SDS011;43403;51.948;5.922;2023-03-31T08:40:09;3.95;;;1.52;;
57567;SDS011;43403;51.948;5.922;2023-03-31T08:42:45;9.32;;;1.92;;
57567;SDS011;43403;51.948;5.922;2023-03-31T08:47:44;11.90;;;2.35;;
57567;SDS011;43403;51.948;5.922;2023-03-31T08:50:18;8.55;;;1.80;;
57567;SDS011;43403;51.948;5.922;2023-03-31T08:53:05;7.85;;;2.00;;
57567;SDS011;43403;51.948;5.922;2023-03-31T09:03:56;12.23;;;2.55;;
57567;SDS011;43403;51.948;5.922;2023-03-31T09:07:17;14.77;;;2.83;;
57567;SDS011;43403;51.948;5.922;2023-03-31T09:10:09;9.98;;;2.15;;
57567;SDS011;43403;51.948;5.922;2023-03-31T09:18:19;12.98;;;2.35;;
57567;SDS011;43403;51.948;5.922;2023-03-31T09:20:59;11.80;;;2.83;;
57567;SDS011;43403;51.948;5.922;2023-03-31T09:23:34;13.38;;;2.42;;
57567;SDS011;43403;51.948;5.922;2023-03-31T09:26:03;14.15;;;2.40;;
57567;SDS011;43403;51.948;5.922;2023-03-31T09:28:34;11.57;;;2.63;;
57567;SDS011;43403;51.948;5.922;2023-03-31T09:31:10;12.10;;;3.13;;
57567;SDS011;43403;51.948;5.922;2023-03-31T09:33:41;12.15;;;3.20;;
57567;SDS011;43403;51.948;5.922;2023-03-31T09:36:15;14.13;;;2.90;;
57567;SDS011;43403;51.948;5.922;2023-03-31T09:38:44;15.60;;;3.10;;
57567;SDS011;43403;51.948;5.922;2023-03-31T09:41:12;12.13;;;3.13;;
57567;SDS011;43403;51.948;5.922;2023-03-31T09:43:41;12.60;;;3.15;;
57567;SDS011;43403;51.948;5.922;2023-03-31T09:46:27;14.23;;;3.13;;
57567;SDS011;43403;51.948;5.922;2023-03-31T09:49:15;14.55;;;3.33;;
57567;SDS011;43403;51.948;5.922;2023-03-31T09:51:45;14.55;;;3.22;;
57567;SDS011;43403;51.948;5.922;2023-03-31T09:54:22;11.75;;;3.17;;
57567;SDS011;43403;51.948;5.922;2023-03-31T09:56:54;10.65;;;2.83;;
57567;SDS011;43403;51.948;5.922;2023-03-31T09:59:22;10.77;;;2.90;;
57567;SDS011;43403;51.948;5.922;2023-03-31T10:01:55;12.15;;;2.78;;
57567;SDS011;43403;51.948;5.922;2023-03-31T10:04:26;13.55;;;2.88;;
57567;SDS011;43403;51.948;5.922;2023-03-31T10:06:55;12.52;;;2.72;;
57567;SDS011;43403;51.948;5.922;2023-03-31T10:09:25;9.93;;;2.60;;
57567;SDS011;43403;51.948;5.922;2023-03-31T10:11:58;14.15;;;2.65;;
57567;SDS011;43403;51.948;5.922;2023-03-31T10:14:37;8.60;;;2.38;;
57567;SDS011;43403;51.948;5.922;2023-03-31T10:17:06;12.88;;;2.78;;
57567;SDS011;43403;51.948;5.922;2023-03-31T10:19:46;15.50;;;2.17;;
57567;SDS011;43403;51.948;5.922;2023-03-31T10:22:16;10.40;;;2.50;;
57567;SDS011;43403;51.948;5.922;2023-03-31T10:24:53;13.20;;;2.42;;
57567;SDS011;43403;51.948;5.922;2023-03-31T10:27:34;13.88;;;2.70;;
57567;SDS011;43403;51.948;5.922;2023-03-31T10:30:08;12.25;;;2.47;;
57567;SDS011;43403;51.948;5.922;2023-03-31T10:32:38;9.90;;;1.85;;
57567;SDS011;43403;51.948;5.922;2023-03-31T10:35:15;10.82;;;2.20;;
57567;SDS011;43403;51.948;5.922;2023-03-31T10:37:50;10.85;;;2.30;;
57567;SDS011;43403;51.948;5.922;2023-03-31T10:40:23;12.00;;;2.05;;
57567;SDS011;43403;51.948;5.922;2023-03-31T10:43:00;10.75;;;2.15;;
57567;SDS011;43403;51.948;5.922;2023-03-31T10:46:05;6.80;;;1.67;;
57567;SDS011;43403;51.948;5.922;2023-03-31T10:48:33;12.90;;;2.97;;
57567;SDS011;43403;51.948;5.922;2023-03-31T10:53:40;13.63;;;2.50;;
57567;SDS011;43403;51.948;5.922;2023-03-31T10:59:10;13.30;;;2.80;;
57567;SDS011;43403;51.948;5.922;2023-03-31T11:13:47;15.10;;;2.15;;
57567;SDS011;43403;51.948;5.922;2023-03-31T11:15:53;6.88;;;1.88;;
57567;SDS011;43403;51.948;5.922;2023-03-31T11:32:29;11.98;;;2.15;;
57567;SDS011;43403;51.948;5.922;2023-03-31T11:46:14;12.75;;;2.75;;
57567;SDS011;43403;51.948;5.922;2023-03-31T11:54:23;7.85;;;2.22;;
57567;SDS011;43403;51.948;5.922;2023-03-31T11:56:56;8.93;;;2.08;;
57567;SDS011;43403;51.948;5.922;2023-03-31T11:59:28;9.27;;;2.08;;
57567;SDS011;43403;51.948;5.922;2023-03-31T12:02:03;9.77;;;2.33;;
57567;SDS011;43403;51.948;5.922;2023-03-31T12:04:41;9.75;;;1.92;;
57567;SDS011;43403;51.948;5.922;2023-03-31T12:07:16;10.02;;;2.00;;
57567;SDS011;43403;51.948;5.922;2023-03-31T12:15:39;12.57;;;1.80;;
57567;SDS011;43403;51.948;5.922;2023-03-31T12:18:14;9.20;;;1.92;;
57567;SDS011;43403;51.948;5.922;2023-03-31T12:20:52;10.77;;;2.00;;
57567;SDS011;43403;51.948;5.922;2023-03-31T12:23:22;9.23;;;1.80;;
57567;SDS011;43403;51.948;5.922;2023-03-31T12:25:58;11.05;;;2.13;;
57567;SDS011;43403;51.948;5.922;2023-03-31T12:28:36;9.38;;;2.13;;
57567;SDS011;43403;51.948;5.922;2023-03-31T12:31:06;6.22;;;1.50;;
57567;SDS011;43403;51.948;5.922;2023-03-31T12:33:39;11.48;;;2.25;;
57567;SDS011;43403;51.948;5.922;2023-03-31T12:36:17;13.80;;;2.58;;
57567;SDS011;43403;51.948;5.922;2023-03-31T12:41:59;6.45;;;1.35;;
57567;SDS011;43403;51.948;5.922;2023-03-31T12:56:00;11.50;;;1.90;;
57567;SDS011;43403;51.948;5.922;2023-03-31T13:06:01;4.82;;;1.13;;
57567;SDS011;43403;51.948;5.922;2023-03-31T13:11:21;6.85;;;1.30;;
57567;SDS011;43403;51.948;5.922;2023-03-31T13:14:19;8.82;;;1.50;;
57567;SDS011;43403;51.948;5.922;2023-03-31T13:16:49;6.75;;;1.25;;
57567;SDS011;43403;51.948;5.922;2023-03-31T13:19:38;8.90;;;1.63;;
57567;SDS011;43403;51.948;5.922;2023-03-31T13:22:25;6.35;;;1.40;;
57567;SDS011;43403;51.948;5.922;2023-03-31T13:25:12;10.80;;;1.53;;
57567;SDS011;43403;51.948;5.922;2023-03-31T13:27:57;6.93;;;2.53;;
57567;SDS011;43403;51.948;5.922;2023-03-31T13:33:06;7.75;;;1.60;;
57567;SDS011;43403;51.948;5.922;2023-03-31T13:36:06;4.68;;;1.30;;
57567;SDS011;43403;51.948;5.922;2023-03-31T13:39:19;7.03;;;1.30;;
57567;SDS011;43403;51.948;5.922;2023-03-31T13:47:07;7.68;;;1.58;;
57567;SDS011;43403;51.948;5.922;2023-03-31T13:52:43;5.70;;;1.30;;
57567;SDS011;43403;51.948;5.922;2023-03-31T13:55:43;6.80;;;1.48;;
57567;SDS011;43403;51.948;5.922;2023-03-31T14:01:39;9.45;;;2.13;;
57567;SDS011;43403;51.948;5.922;2023-03-31T14:04:34;8.82;;;1.70;;
57567;SDS011;43403;51.948;5.922;2023-03-31T14:08:06;6.78;;;1.33;;
57567;SDS011;43403;51.948;5.922;2023-03-31T14:13:06;7.45;;;1.67;;
57567;SDS011;43403;51.948;5.922;2023-03-31T14:15:39;11.98;;;2.40;;
57567;SDS011;43403;51.948;5.922;2023-03-31T14:18:18;5.30;;;1.83;;
57567;SDS011;43403;51.948;5.922;2023-03-31T14:29:44;8.30;;;1.75;;
57567;SDS011;43403;51.948;5.922;2023-03-31T14:32:36;8.13;;;1.42;;
57567;SDS011;43403;51.948;5.922;2023-03-31T14:35:25;5.05;;;1.30;;
57567;SDS011;43403;51.948;5.922;2023-03-31T14:37:58;5.15;;;1.08;;
57567;SDS011;43403;51.948;5.922;2023-03-31T14:40:28;5.15;;;1.65;;
57567;SDS011;43403;51.948;5.922;2023-03-31T14:42:55;5.50;;;1.20;;
57567;SDS011;43403;51.948;5.922;2023-03-31T14:45:23;8.43;;;1.15;;
57567;SDS011;43403;51.948;5.922;2023-03-31T14:47:57;4.47;;;0.90;;
57567;SDS011;43403;51.948;5.922;2023-03-31T14:50:30;8.50;;;1.30;;
57567;SDS011;43403;51.948;5.922;2023-03-31T14:53:00;4.25;;;0.88;;
57567;SDS011;43403;51.948;5.922;2023-03-31T14:55:30;7.05;;;1.67;;
57567;SDS011;43403;51.948;5.922;2023-03-31T14:58:25;3.42;;;1.20;;
57567;SDS011;43403;51.948;5.922;2023-03-31T15:01:00;4.70;;;0.93;;
57567;SDS011;43403;51.948;5.922;2023-03-31T15:03:30;5.65;;;1.02;;
57567;SDS011;43403;51.948;5.922;2023-03-31T15:05:59;4.90;;;1.20;;
57567;SDS011;43403;51.948;5.922;2023-03-31T15:08:27;5.85;;;1.10;;
57567;SDS011;43403;51.948;5.922;2023-03-31T15:11:01;4.80;;;0.90;;
57567;SDS011;43403;51.948;5.922;2023-03-31T15:13:40;3.50;;;0.90;;
57567;SDS011;43403;51.948;5.922;2023-03-31T15:18:03;5.43;;;1.25;;
57567;SDS011;43403;51.948;5.922;2023-03-31T15:20:30;4.47;;;1.17;;
57567;SDS011;43403;51.948;5.922;2023-03-31T15:23:00;4.82;;;1.45;;
57567;SDS011;43403;51.948;5.922;2023-03-31T15:25:35;6.65;;;1.42;;
57567;SDS011;43403;51.948;5.922;2023-03-31T15:28:03;3.63;;;0.98;;
57567;SDS011;43403;51.948;5.922;2023-03-31T15:32:57;6.90;;;1.30;;
57567;SDS011;43403;51.948;5.922;2023-03-31T15:35:43;4.28;;;1.00;;
57567;SDS011;43403;51.948;5.922;2023-03-31T15:38:10;3.00;;;1.02;;
57567;SDS011;43403;51.948;5.922;2023-03-31T15:40:40;6.70;;;1.40;;
57567;SDS011;43403;51.948;5.922;2023-03-31T15:43:13;3.97;;;0.90;;
57567;SDS011;43403;51.948;5.922;2023-03-31T15:50:44;3.40;;;1.20;;
57567;SDS011;43403;51.948;5.922;2023-03-31T15:53:24;3.92;;;0.95;;
57567;SDS011;43403;51.948;5.922;2023-03-31T15:55:53;5.95;;;1.40;;
57567;SDS011;43403;51.948;5.922;2023-03-31T15:58:20;5.35;;;1.45;;
57567;SDS011;43403;51.948;5.922;2023-03-31T16:00:52;6.57;;;1.10;;
57567;SDS011;43403;51.948;5.922;2023-03-31T16:03:32;2.05;;;1.08;;
57567;SDS011;43403;51.948;5.922;2023-03-31T16:06:04;2.72;;;0.70;;
57567;SDS011;43403;51.948;5.922;2023-03-31T16:08:37;7.50;;;1.02;;
57567;SDS011;43403;51.948;5.922;2023-03-31T16:11:08;1.30;;;0.65;;
57567;SDS011;43403;51.948;5.922;2023-03-31T16:13:36;2.03;;;0.60;;
57567;SDS011;43403;51.948;5.922;2023-03-31T16:16:08;3.55;;;0.90;;
57567;SDS011;43403;51.948;5.922;2023-03-31T16:18:36;2.45;;;0.70;;
57567;SDS011;43403;51.948;5.922;2023-03-31T16:21:04;2.97;;;0.60;;
57567;SDS011;43403;51.948;5.922;2023-03-31T16:23:38;1.42;;;0.50;;
57567;SDS011;43403;51.948;5.922;2023-03-31T16:26:06;2.17;;;0.68;;
57567;SDS011;43403;51.948;5.922;2023-03-31T16:28:34;2.10;;;0.60;;
57567;SDS011;43403;51.948;5.922;2023-03-31T16:31:02;2.55;;;0.63;;
57567;SDS011;43403;51.948;5.922;2023-03-31T16:35:56;2.45;;;0.60;;
57567;SDS011;43403;51.948;5.922;2023-03-31T16:38:25;2.65;;;0.80;;
57567;SDS011;43403;51.948;5.922;2023-03-31T16:40:52;1.70;;;1.25;;
57567;SDS011;43403;51.948;5.922;2023-03-31T16:43:23;2.03;;;0.60;;
57567;SDS011;43403;51.948;5.922;2023-03-31T16:45:51;2.88;;;0.70;;
57567;SDS011;43403;51.948;5.922;2023-03-31T16:48:18;1.60;;;0.63;;
57567;SDS011;43403;51.948;5.922;2023-03-31T16:50:46;1.45;;;0.63;;
57567;SDS011;43403;51.948;5.922;2023-03-31T16:53:13;1.98;;;0.68;;
57567;SDS011;43403;51.948;5.922;2023-03-31T16:55:40;1.08;;;0.50;;
57567;SDS011;43403;51.948;5.922;2023-03-31T16:58:06;3.33;;;0.60;;
57567;SDS011;43403;51.948;5.922;2023-03-31T17:00:33;2.17;;;0.75;;
57567;SDS011;43403;51.948;5.922;2023-03-31T17:03:01;2.10;;;0.80;;
57567;SDS011;43403;51.948;5.922;2023-03-31T17:05:28;2.00;;;0.60;;
57567;SDS011;43403;51.948;5.922;2023-03-31T17:07:57;1.92;;;0.50;;
57567;SDS011;43403;51.948;5.922;2023-03-31T17:10:24;1.38;;;0.60;;
57567;SDS011;43403;51.948;5.922;2023-03-31T17:12:50;1.52;;;0.77;;
57567;SDS011;43403;51.948;5.922;2023-03-31T17:15:17;0.90;;;0.50;;
57567;SDS011;43403;51.948;5.922;2023-03-31T17:17:43;1.50;;;0.70;;
57567;SDS011;43403;51.948;5.922;2023-03-31T17:20:10;3.03;;;0.80;;
57567;SDS011;43403;51.948;5.922;2023-03-31T17:22:37;2.90;;;0.73;;
57567;SDS011;43403;51.948;5.922;2023-03-31T17:25:04;1.65;;;0.60;;
57567;SDS011;43403;51.948;5.922;2023-03-31T17:27:30;3.15;;;0.80;;
57567;SDS011;43403;51.948;5.922;2023-03-31T17:29:57;2.33;;;1.15;;
57567;SDS011;43403;51.948;5.922;2023-03-31T17:32:24;1.48;;;0.90;;
57567;SDS011;43403;51.948;5.922;2023-03-31T17:34:51;3.53;;;1.00;;
57567;SDS011;43403;51.948;5.922;2023-03-31T17:37:18;2.50;;;0.80;;
57567;SDS011;43403;51.948;5.922;2023-03-31T17:39:45;1.70;;;0.80;;
57567;SDS011;43403;51.948;5.922;2023-03-31T17:42:12;1.65;;;0.80;;
57567;SDS011;43403;51.948;5.922;2023-03-31T17:44:38;1.70;;;0.80;;
57567;SDS011;43403;51.948;5.922;2023-03-31T17:47:05;5.45;;;0.90;;
57567;SDS011;43403;51.948;5.922;2023-03-31T17:49:32;1.42;;;0.80;;
57567;SDS011;43403;51.948;5.922;2023-03-31T17:51:59;3.60;;;0.95;;
57567;SDS011;43403;51.948;5.922;2023-03-31T17:54:26;4.30;;;1.10;;
57567;SDS011;43403;51.948;5.922;2023-03-31T17:56:52;3.53;;;0.85;;
57567;SDS011;43403;51.948;5.922;2023-03-31T17:59:19;4.50;;;1.10;;
57567;SDS011;43403;51.948;5.922;2023-03-31T18:01:46;3.50;;;0.93;;
57567;SDS011;43403;51.948;5.922;2023-03-31T18:04:12;3.80;;;1.00;;
57567;SDS011;43403;51.948;5.922;2023-03-31T18:06:39;4.00;;;1.92;;
57567;SDS011;43403;51.948;5.922;2023-03-31T18:09:07;2.45;;;1.02;;
57567;SDS011;43403;51.948;5.922;2023-03-31T18:11:34;3.03;;;0.80;;
57567;SDS011;43403;51.948;5.922;2023-03-31T18:14:00;2.63;;;0.90;;
57567;SDS011;43403;51.948;5.922;2023-03-31T18:16:28;4.35;;;1.10;;
57567;SDS011;43403;51.948;5.922;2023-03-31T18:18:55;2.80;;;1.00;;